createdAt,value
2019-06-07T05:06:25.323Z,15.74
2019-06-07T05:11:26.225Z,15.84
2019-06-07T05:16:35.200Z,16.12
2019-06-07T05:21:54.264Z,16.17
2019-06-07T05:26:39.154Z,15.94
2019-06-07T05:31:45.270Z,16.32
2019-06-07T05:36:45.245Z,16.33
2019-06-07T05:41:46.377Z,16.51
2019-06-07T05:46:47.680Z,16.57
2019-06-07T05:51:48.668Z,16.69
2019-06-07T05:56:49.568Z,16.71
2019-06-07T06:02:02.080Z,16.82
2019-06-07T06:06:53.221Z,16.79
2019-06-07T06:12:01.539Z,16.99
2019-06-07T06:16:56.872Z,17.11
2019-06-07T06:21:57.771Z,17.38
2019-06-07T06:27:40.664Z,17.52
2019-06-07T06:37:13.601Z,17.74
2019-06-07T06:42:14.488Z,17.65
2019-06-07T06:47:15.375Z,17.71
2019-06-07T06:52:16.270Z,18.07
2019-06-07T06:57:20.086Z,18.24
2019-06-07T07:02:19.924Z,18.45
2019-06-07T07:07:22.291Z,18.71
2019-06-07T07:12:23.166Z,18.86
2019-06-07T07:17:47.154Z,18.67
2019-06-07T07:22:26.820Z,18.73
2019-06-07T07:27:27.703Z,18.99
2019-06-07T07:32:28.586Z,19.04
2019-06-07T07:37:29.620Z,19.14
2019-06-07T07:42:30.543Z,19.31
2019-06-07T07:47:31.449Z,19.43
2019-06-07T07:52:32.296Z,19.42
2019-06-07T07:57:33.177Z,19.97
2019-06-07T08:02:34.760Z,19.92
2019-06-07T08:07:35.641Z,20.19
2019-06-07T08:12:55.759Z,20.18
2019-06-07T08:17:39.297Z,20.48
2019-06-07T08:22:40.261Z,20.62
2019-06-07T08:27:41.141Z,20.56
2019-06-07T08:32:42.046Z,21.18
2019-06-07T08:38:15.062Z,20.97
2019-06-07T08:43:02.806Z,21.17
2019-06-07T08:47:56.531Z,21.32
2019-06-07T08:52:54.727Z,21.79
2019-06-07T08:58:01.544Z,21.94
2019-06-07T09:02:58.929Z,21.74
2019-06-07T09:08:23.847Z,22.19
2019-06-07T09:13:10.099Z,22.53
2019-06-07T09:23:16.817Z,22.78
2019-06-07T09:28:19.156Z,22.92
2019-06-07T09:33:14.643Z,23.29
2019-06-07T09:38:25.015Z,23.57
2019-06-07T09:43:59.867Z,23.76
2019-06-07T09:49:08.964Z,24.18
2019-06-07T09:53:24.893Z,23.92
2019-06-07T10:03:28.553Z,24.32
2019-06-07T10:13:32.234Z,24.40
2019-06-07T10:18:33.114Z,24.96
2019-06-07T10:23:34.772Z,25.01
2019-06-07T10:28:35.648Z,25.29
2019-06-07T10:33:36.539Z,25.14
2019-06-07T10:38:37.407Z,25.38
2019-06-07T10:43:38.286Z,25.56
2019-06-07T10:48:39.257Z,25.55
2019-06-07T10:53:40.135Z,25.71
2019-06-07T10:58:41.326Z,25.98
2019-06-07T11:03:42.305Z,25.58
2019-06-07T11:08:43.300Z,25.64
2019-06-07T11:13:44.177Z,25.66
2019-06-07T11:18:45.154Z,25.84
2019-06-07T11:23:46.149Z,25.63
2019-06-07T11:28:47.031Z,26.53
2019-06-07T11:33:47.924Z,26.38
2019-06-07T11:38:48.899Z,26.71
2019-06-07T11:43:49.787Z,26.81
2019-06-07T11:48:50.646Z,26.51
2019-06-07T11:53:51.522Z,27.08
2019-06-07T11:58:52.445Z,27.00
2019-06-07T12:03:53.473Z,26.98
2019-06-07T12:08:54.478Z,27.08
2019-06-07T12:13:55.593Z,27.10
2019-06-07T12:18:56.574Z,27.00
2019-06-07T12:23:57.473Z,27.02
2019-06-07T12:28:58.325Z,27.86
2019-06-07T12:33:59.214Z,27.64
2019-06-07T12:39:00.112Z,27.88
2019-06-07T12:44:01.957Z,27.89
2019-06-07T12:49:03.611Z,27.74
2019-06-07T12:54:04.924Z,27.76
2019-06-07T12:59:05.798Z,28.06
2019-06-07T13:04:14.318Z,27.98
2019-06-07T13:09:21.863Z,28.07
2019-06-07T13:14:24.040Z,28.35
2019-06-07T13:19:25.122Z,28.11
2019-06-07T13:24:25.999Z,27.88
2019-06-07T13:29:29.577Z,28.30
2019-06-07T13:34:29.712Z,28.27
2019-06-07T13:39:30.579Z,28.57
2019-06-07T13:44:31.572Z,28.38
2019-06-07T13:49:32.449Z,28.45
2019-06-07T13:54:33.339Z,28.27
2019-06-07T13:59:34.210Z,28.41
2019-06-07T14:04:35.077Z,28.45
2019-06-07T14:09:35.954Z,28.50
2019-06-07T14:14:36.825Z,28.42
2019-06-07T14:19:37.704Z,27.93
2019-06-07T14:24:38.567Z,28.27
2019-06-07T14:29:39.551Z,28.47
2019-06-07T14:34:40.551Z,28.40
2019-06-07T14:39:41.739Z,28.70
2019-06-07T14:44:42.606Z,28.64
2019-06-07T14:49:43.581Z,28.60
2019-06-07T14:54:44.571Z,28.82
2019-06-07T14:59:45.444Z,28.54
2019-06-07T15:04:46.744Z,28.76
2019-06-07T15:09:47.598Z,28.66
2019-06-07T15:14:48.472Z,28.77
2019-06-07T15:19:49.365Z,28.81
2019-06-07T15:24:50.240Z,28.63
2019-06-07T15:29:51.119Z,28.34
2019-06-07T15:34:52.004Z,28.32
2019-06-07T15:39:52.877Z,28.09
2019-06-07T15:44:55.917Z,28.34
2019-06-07T15:49:56.526Z,28.13
2019-06-07T15:54:57.399Z,27.96
2019-06-07T15:59:58.276Z,28.14
2019-06-07T16:04:59.257Z,28.02
2019-06-07T16:10:00.127Z,27.86
2019-06-07T16:15:01.000Z,28.07
2019-06-07T16:20:06.386Z,27.97
2019-06-07T16:25:07.361Z,28.01
2019-06-07T16:30:09.836Z,27.91
2019-06-07T16:35:11.524Z,27.82
2019-06-07T16:40:14.031Z,27.85
2019-06-07T16:45:15.128Z,27.66
2019-06-07T16:50:16.386Z,27.38
2019-06-07T16:55:17.359Z,27.34
2019-06-07T17:00:19.751Z,27.01
2019-06-07T17:05:21.214Z,26.77
2019-06-07T17:10:22.215Z,26.81
2019-06-07T17:15:23.372Z,26.29
2019-06-07T17:20:24.454Z,26.01
2019-06-07T17:25:25.354Z,25.64
2019-06-07T17:30:26.300Z,25.68
2019-06-07T17:35:27.191Z,25.51
2019-06-07T17:40:28.069Z,25.24
2019-06-07T17:45:28.940Z,25.19
2019-06-07T17:50:29.918Z,25.05
2019-06-07T17:55:30.796Z,24.97
2019-06-07T18:00:51.300Z,24.85
2019-06-07T18:05:53.543Z,24.59
2019-06-07T18:10:54.537Z,24.55
2019-06-07T18:15:59.375Z,24.39
2019-06-07T18:20:58.203Z,24.36
2019-06-07T18:25:59.078Z,24.35
2019-06-07T18:30:59.965Z,24.24
2019-06-07T18:36:01.576Z,24.13
2019-06-07T18:41:02.447Z,24.04
2019-06-07T18:46:03.430Z,23.90
2019-06-07T18:51:04.421Z,23.86
2019-06-07T18:56:05.370Z,23.84
2019-06-07T19:01:06.310Z,23.76
2019-06-07T19:06:07.225Z,23.59
2019-06-07T19:11:08.166Z,23.64
2019-06-07T19:16:09.053Z,23.64
2019-06-07T19:21:10.037Z,23.51
2019-06-07T19:26:10.927Z,23.33
2019-06-07T19:31:11.807Z,23.19
2019-06-07T19:36:12.740Z,23.08
2019-06-07T19:41:19.642Z,23.00
2019-06-07T19:46:16.368Z,22.88
2019-06-07T19:51:20.198Z,22.92
2019-06-07T19:56:20.028Z,22.84
2019-06-07T20:01:21.109Z,22.69
2019-06-07T20:06:21.990Z,22.58
2019-06-07T20:11:22.916Z,22.45
2019-06-07T20:16:23.747Z,22.44
2019-06-07T20:21:24.620Z,22.36
2019-06-07T20:26:25.504Z,22.22
2019-06-07T20:31:26.387Z,22.12
2019-06-07T20:36:27.275Z,22.20
2019-06-07T20:41:28.172Z,22.18
2019-06-07T20:46:29.035Z,21.82
2019-06-07T20:51:29.908Z,21.90
2019-06-07T20:56:30.786Z,21.72
2019-06-07T21:01:31.692Z,21.90
2019-06-07T21:06:32.551Z,21.58
2019-06-07T21:11:33.432Z,21.55
2019-06-07T21:16:34.415Z,21.50
2019-06-07T21:21:35.399Z,21.52
2019-06-07T21:26:36.270Z,21.23
2019-06-07T21:31:37.156Z,20.93
2019-06-07T21:36:38.059Z,20.88
2019-06-07T21:41:38.931Z,20.95
2019-06-07T21:46:39.804Z,20.85
2019-06-07T21:51:40.698Z,20.99
2019-06-07T21:56:41.570Z,20.90
2019-06-07T22:01:42.830Z,20.95
2019-06-07T22:06:43.702Z,20.65
2019-06-07T22:11:44.595Z,20.73
2019-06-07T22:16:45.586Z,20.41
2019-06-07T22:21:59.236Z,20.21
2019-06-07T22:26:49.344Z,20.28
2019-06-07T22:31:50.221Z,19.93
2019-06-07T22:36:51.120Z,20.09
2019-06-07T22:41:52.004Z,19.64
2019-06-07T22:46:53.005Z,19.79
2019-06-07T22:52:07.981Z,19.17
2019-06-07T22:56:58.581Z,19.39
2019-06-07T23:01:59.547Z,19.33
2019-06-07T23:07:00.416Z,19.25
2019-06-07T23:12:01.298Z,18.92
2019-06-07T23:17:02.401Z,19.28
2019-06-07T23:22:03.377Z,19.07
2019-06-07T23:27:04.256Z,19.04
2019-06-07T23:32:05.138Z,19.31
2019-06-07T23:37:06.037Z,19.18
2019-06-07T23:42:06.919Z,19.39
2019-06-07T23:47:11.083Z,19.17
2019-06-07T23:52:11.661Z,18.80
2019-06-07T23:57:13.987Z,19.10
